Time;durP1;ratioP1;P1;durP2;ratioP2;P2;SDS_P1;SDS_P2;PMS_P1;PMS_P2;Temp;Humidity;BMP_temperature;BMP_pressure;BME280_temperature;BME280_humidity;BME280_pressure;Samples;Min_cycle;Max_cycle;Signal;HPM_P1;HPM_P2
2022/07/23 00:00:25;;;;;;;11.10;5.95;;;13.10;99.90;;;;;;5038064;28;20045;-66
2022/07/23 00:02:52;;;;;;;10.00;5.13;;;13.10;99.90;;;;;;5039143;28;20018;-66
2022/07/23 00:05:19;;;;;;;8.48;5.90;;;13.00;99.90;;;;;;5029830;28;20048;-67
2022/07/23 00:07:47;;;;;;;12.65;5.10;;;13.00;99.90;;;;;;5034377;28;20030;-66
2022/07/23 00:10:14;;;;;;;10.90;6.38;;;13.00;99.90;;;;;;5036665;28;20060;-65
2022/07/23 00:12:42;;;;;;;8.35;6.20;;;13.00;99.90;;;;;;5030922;28;20581;-65
2022/07/23 00:15:10;;;;;;;13.73;6.20;;;12.90;99.90;;;;;;5038122;28;20064;-66
2022/07/23 00:17:37;;;;;;;8.73;5.28;;;12.90;99.90;;;;;;5033617;28;20090;-66
2022/07/23 00:20:05;;;;;;;12.10;5.68;;;13.10;99.90;;;;;;5037824;28;20057;-66
2022/07/23 00:22:32;;;;;;;8.10;4.00;;;13.20;99.90;;;;;;5037251;28;20022;-66
2022/07/23 00:24:59;;;;;;;7.68;4.30;;;13.20;99.90;;;;;;5037276;28;20034;-66
2022/07/23 00:27:27;;;;;;;10.65;5.72;;;13.40;99.90;;;;;;5036413;28;20102;-67
2022/07/23 00:29:54;;;;;;;13.93;6.63;;;13.50;99.90;;;;;;5035373;28;20051;-66
2022/07/23 00:32:21;;;;;;;9.88;7.45;;;13.70;99.90;;;;;;5035210;28;20018;-66
2022/07/23 00:34:48;;;;;;;11.75;7.43;;;13.70;99.90;;;;;;5034076;28;20048;-66
2022/07/23 00:37:16;;;;;;;11.48;6.20;;;13.70;99.90;;;;;;5034545;28;20187;-66
2022/07/23 00:39:43;;;;;;;13.93;6.55;;;13.50;99.90;;;;;;5035517;28;20022;-65
2022/07/23 00:42:10;;;;;;;8.80;5.95;;;13.50;99.90;;;;;;5036928;28;20018;-67
2022/07/23 00:44:37;;;;;;;9.75;6.75;;;13.40;99.90;;;;;;5039117;28;20029;-66
2022/07/23 00:47:05;;;;;;;11.30;8.00;;;13.50;99.90;;;;;;5037083;28;20026;-66
2022/07/23 00:49:32;;;;;;;11.52;7.22;;;13.60;99.90;;;;;;5038751;28;20090;-66
2022/07/23 00:52:03;;;;;;;14.70;7.13;;;13.50;99.90;;;;;;5038264;28;20048;-66
2022/07/23 00:54:30;;;;;;;12.05;7.10;;;13.30;99.90;;;;;;5036818;28;20085;-65
2022/07/23 00:56:57;;;;;;;16.90;9.15;;;13.20;99.90;;;;;;5038022;28;20202;-66
2022/07/23 00:59:25;;;;;;;13.27;7.32;;;13.20;99.90;;;;;;5039131;28;20030;-65
2022/07/23 01:01:52;;;;;;;13.75;7.53;;;13.30;99.90;;;;;;5038212;28;20022;-65
2022/07/23 01:04:19;;;;;;;14.60;7.85;;;13.30;99.90;;;;;;5039133;28;20034;-65
2022/07/23 01:06:47;;;;;;;12.07;7.57;;;13.40;99.90;;;;;;5038134;28;20029;-65
2022/07/23 01:09:14;;;;;;;11.95;7.45;;;13.30;99.90;;;;;;5036340;28;20026;-65
2022/07/23 01:11:42;;;;;;;10.90;6.55;;;13.30;99.90;;;;;;5037881;28;20025;-65
2022/07/23 01:14:15;;;;;;;11.32;6.90;;;13.40;99.90;;;;;;5039030;28;20029;-65
2022/07/23 01:16:43;;;;;;;13.35;6.68;;;13.50;99.90;;;;;;5037862;28;20037;-65
2022/07/23 01:19:12;;;;;;;12.50;6.97;;;13.50;99.90;;;;;;5039039;28;20018;-65
2022/07/23 01:21:45;;;;;;;21.23;7.85;;;13.60;99.90;;;;;;5037885;28;20030;-65
2022/07/23 01:24:13;;;;;;;18.80;7.68;;;13.60;99.90;;;;;;5035837;28;20026;-65
2022/07/23 01:26:46;;;;;;;17.73;7.72;;;13.70;99.90;;;;;;5036786;28;20036;-65
2022/07/23 01:29:14;;;;;;;10.52;6.30;;;13.70;99.90;;;;;;5038819;28;20018;-65
2022/07/23 01:31:41;;;;;;;13.43;6.95;;;13.70;99.90;;;;;;5037958;28;20029;-65
2022/07/23 01:34:09;;;;;;;14.02;6.60;;;13.80;99.90;;;;;;5038845;28;20026;-65
2022/07/23 01:36:37;;;;;;;10.05;6.43;;;13.90;99.90;;;;;;5037293;28;20026;-65
2022/07/23 01:39:07;;;;;;;12.63;6.95;;;14.00;99.90;;;;;;5038608;28;20025;-65
2022/07/23 01:41:35;;;;;;;10.18;6.75;;;14.10;99.90;;;;;;5035399;28;20086;-65
2022/07/23 01:44:02;;;;;;;12.95;6.75;;;14.20;99.90;;;;;;5037437;28;20026;-65
2022/07/23 01:46:30;;;;;;;16.13;5.85;;;14.30;99.90;;;;;;5036502;28;20049;-65
2022/07/23 01:48:57;;;;;;;12.68;6.80;;;14.20;99.90;;;;;;5038416;28;20084;-66
2022/07/23 01:51:24;;;;;;;9.63;5.50;;;14.20;99.90;;;;;;5037293;28;20022;-66
2022/07/23 01:53:51;;;;;;;9.63;5.00;;;14.10;99.90;;;;;;5038315;28;20075;-66
2022/07/23 01:56:20;;;;;;;10.60;5.68;;;14.10;99.90;;;;;;5037234;28;20049;-66
2022/07/23 01:58:49;;;;;;;11.45;7.07;;;14.10;99.90;;;;;;5035841;28;20018;-66
2022/07/23 02:01:16;;;;;;;11.52;5.65;;;14.10;99.90;;;;;;5019483;28;20077;-66
2022/07/23 02:03:44;;;;;;;10.73;5.55;;;14.20;99.90;;;;;;5038097;28;20026;-66
2022/07/23 02:06:11;;;;;;;8.93;5.03;;;14.30;99.90;;;;;;5036797;28;20049;-66
2022/07/23 02:08:38;;;;;;;8.25;4.15;;;14.30;99.90;;;;;;5031225;28;20029;-66
2022/07/23 02:11:05;;;;;;;10.13;4.72;;;14.30;99.90;;;;;;5029647;28;20014;-66
2022/07/23 02:13:33;;;;;;;10.07;3.97;;;14.50;99.90;;;;;;5032967;28;20048;-66
2022/07/23 02:16:00;;;;;;;8.02;3.25;;;14.80;99.90;;;;;;5030060;28;20044;-66
2022/07/23 02:18:27;;;;;;;8.55;4.03;;;15.40;99.90;;;;;;5032431;28;20018;-67
2022/07/23 02:20:55;;;;;;;6.68;3.13;;;16.30;99.90;;;;;;5030630;28;20026;-67
2022/07/23 02:23:22;;;;;;;6.93;2.28;;;15.90;99.90;;;;;;5025782;28;20052;-67
2022/07/23 02:25:49;;;;;;;4.72;2.17;;;15.70;99.90;;;;;;5030814;28;20033;-67
2022/07/23 02:28:16;;;;;;;4.43;1.98;;;15.60;99.90;;;;;;5036239;28;20036;-67
2022/07/23 02:30:44;;;;;;;5.30;1.75;;;15.40;99.90;;;;;;5034376;28;20034;-68
2022/07/23 02:33:11;;;;;;;5.28;1.50;;;15.30;99.90;;;;;;5016865;28;20054;-67
2022/07/23 02:35:38;;;;;;;5.22;2.50;;;15.30;99.90;;;;;;5028249;28;20045;-67
2022/07/23 02:38:05;;;;;;;6.25;2.58;;;15.10;99.90;;;;;;5031818;28;20045;-67
2022/07/23 02:40:32;;;;;;;4.68;1.73;;;14.90;99.90;;;;;;5030206;28;20042;-67
2022/07/23 02:43:00;;;;;;;7.28;2.15;;;15.00;99.90;;;;;;5031646;28;20038;-67
2022/07/23 02:45:27;;;;;;;5.47;2.03;;;14.90;99.90;;;;;;5033179;28;20124;-67
2022/07/23 02:47:54;;;;;;;4.90;2.03;;;15.00;99.90;;;;;;5033108;28;20049;-67
2022/07/23 02:50:22;;;;;;;6.90;2.83;;;15.00;99.90;;;;;;5031302;28;20018;-67
2022/07/23 02:52:49;;;;;;;8.38;2.20;;;14.80;99.90;;;;;;5032566;28;20074;-67
2022/07/23 02:55:16;;;;;;;5.72;2.10;;;14.80;99.90;;;;;;5028402;28;20058;-67
2022/07/23 02:57:43;;;;;;;8.90;2.03;;;14.90;99.90;;;;;;5033565;28;20022;-67
2022/07/23 03:00:11;;;;;;;6.30;1.75;;;14.90;99.90;;;;;;5035263;28;20081;-68
2022/07/23 03:02:39;;;;;;;7.85;1.73;;;14.80;99.90;;;;;;5033690;28;20022;-68
2022/07/23 03:05:06;;;;;;;15.27;3.25;;;14.70;99.90;;;;;;5029482;28;20053;-68
2022/07/23 03:07:34;;;;;;;5.00;0.88;;;14.70;99.90;;;;;;5029561;28;20085;-67
2022/07/23 03:10:02;;;;;;;11.73;1.48;;;14.60;99.90;;;;;;5030161;28;20037;-67
2022/07/23 03:12:29;;;;;;;4.10;1.00;;;14.70;99.90;;;;;;5033381;28;20060;-67
2022/07/23 03:14:57;;;;;;;6.72;1.30;;;14.90;99.90;;;;;;5035333;28;20057;-67
2022/07/23 03:17:24;;;;;;;2.28;0.77;;;15.30;99.90;;;;;;5039959;28;20038;-67
2022/07/23 03:19:51;;;;;;;3.75;0.60;;;15.50;99.90;;;;;;5040789;28;20021;-68
2022/07/23 03:22:18;;;;;;;4.40;0.60;;;15.40;99.90;;;;;;5038366;28;20026;-68
2022/07/23 03:24:55;;;;;;;3.30;0.95;;;15.30;99.90;;;;;;5034794;28;20025;-67
2022/07/23 03:27:28;;;;;;;8.88;1.45;;;15.40;99.90;;;;;;5032530;28;20049;-67
2022/07/23 03:29:57;;;;;;;3.22;0.70;;;15.80;99.90;;;;;;5039883;28;20049;-67
2022/07/23 03:32:25;;;;;;;2.55;0.60;;;15.30;99.90;;;;;;5023149;28;20026;-67
2022/07/23 03:34:53;;;;;;;2.40;0.45;;;15.40;99.90;;;;;;5038590;28;20041;-67
2022/07/23 03:37:20;;;;;;;0.77;0.15;;;15.80;99.90;;;;;;5038113;28;20082;-67
2022/07/23 03:39:48;;;;;;;2.30;0.20;;;15.60;99.90;;;;;;5034448;28;20026;-67
2022/07/23 03:42:15;;;;;;;0.65;0.20;;;15.90;99.90;;;;;;5034817;28;20141;-67
2022/07/23 03:44:42;;;;;;;3.88;0.40;;;16.50;99.90;;;;;;5035049;28;20037;-67
2022/07/23 03:47:09;;;;;;;0.40;0.20;;;16.80;99.90;;;;;;5031208;28;20030;-67
2022/07/23 03:49:37;;;;;;;1.75;0.32;;;16.50;99.90;;;;;;5035505;28;20045;-67
2022/07/23 03:52:04;;;;;;;1.35;0.17;;;16.20;99.90;;;;;;5036420;28;20033;-67
2022/07/23 03:54:31;;;;;;;2.38;0.32;;;16.10;99.90;;;;;;5019557;28;20034;-67
2022/07/23 03:56:59;;;;;;;2.20;0.60;;;16.20;99.90;;;;;;5033172;28;20090;-67
2022/07/23 03:59:26;;;;;;;1.75;0.30;;;16.10;99.90;;;;;;5038701;28;20053;-67
2022/07/23 04:01:53;;;;;;;6.47;0.63;;;16.00;99.90;;;;;;5031784;28;20082;-67
2022/07/23 04:04:20;;;;;;;1.75;0.70;;;15.80;99.90;;;;;;5034726;28;20034;-67
2022/07/23 04:06:48;;;;;;;2.70;0.30;;;15.70;99.90;;;;;;5032419;28;20022;-67
2022/07/23 04:09:15;;;;;;;2.00;0.13;;;15.50;99.90;;;;;;5038135;28;20087;-67
2022/07/23 04:11:42;;;;;;;1.23;0.20;;;15.50;99.90;;;;;;5019566;28;20026;-67
2022/07/23 04:14:10;;;;;;;1.10;0.32;;;15.40;99.90;;;;;;5036116;28;20093;-67
2022/07/23 04:16:37;;;;;;;1.25;0.38;;;15.30;99.90;;;;;;5036118;28;20057;-68
2022/07/23 04:19:05;;;;;;;2.42;0.52;;;15.50;99.90;;;;;;5036533;28;20061;-68
2022/07/23 04:21:32;;;;;;;1.50;0.20;;;15.70;99.90;;;;;;5032848;28;20018;-68
2022/07/23 04:23:59;;;;;;;1.08;0.30;;;15.70;99.90;;;;;;5021589;28;20030;-68
2022/07/23 04:26:26;;;;;;;3.95;0.30;;;15.70;99.90;;;;;;5022318;28;20108;-68
2022/07/23 04:28:54;;;;;;;1.52;0.40;;;15.80;99.90;;;;;;5011474;28;20121;-68
2022/07/23 04:31:21;;;;;;;0.45;0.20;;;15.50;99.90;;;;;;5030519;28;20086;-68
2022/07/23 04:33:48;;;;;;;2.10;0.32;;;15.20;99.90;;;;;;5032731;28;20034;-67
2022/07/23 04:36:15;;;;;;;1.27;0.40;;;15.20;99.90;;;;;;5027764;28;20050;-67
2022/07/23 04:38:43;;;;;;;1.27;0.28;;;15.00;99.90;;;;;;5029480;28;20086;-66
2022/07/23 04:41:10;;;;;;;2.67;0.50;;;15.00;99.90;;;;;;5031035;28;21310;-67
2022/07/23 04:43:37;;;;;;;0.77;0.25;;;15.10;99.90;;;;;;5034650;28;20037;-67
2022/07/23 04:46:05;;;;;;;1.15;0.35;;;15.20;99.90;;;;;;5036728;28;20022;-67
2022/07/23 04:48:33;;;;;;;2.92;0.60;;;15.30;99.90;;;;;;5038141;28;20030;-68
2022/07/23 04:51:00;;;;;;;1.98;0.40;;;15.30;99.90;;;;;;5036776;28;20024;-68
2022/07/23 04:53:27;;;;;;;5.40;0.40;;;15.20;99.90;;;;;;5037726;28;20022;-68
2022/07/23 04:55:55;;;;;;;1.20;0.20;;;15.20;99.90;;;;;;5035206;28;20050;-68
2022/07/23 04:58:22;;;;;;;3.42;0.50;;;14.90;99.90;;;;;;5035940;28;20033;-68
2022/07/23 05:00:50;;;;;;;2.80;0.28;;;14.80;99.90;;;;;;5037000;28;20042;-68
2022/07/23 05:03:18;;;;;;;0.68;0.28;;;14.80;99.90;;;;;;5035985;28;20053;-67
2022/07/23 05:05:45;;;;;;;0.68;0.40;;;14.70;99.90;;;;;;5032493;28;20109;-67
2022/07/23 05:08:12;;;;;;;1.88;0.40;;;14.70;99.90;;;;;;5036827;28;20030;-68
2022/07/23 05:10:40;;;;;;;0.80;0.32;;;14.80;99.90;;;;;;5035455;28;20065;-67
2022/07/23 05:13:11;;;;;;;2.13;0.38;;;14.80;99.90;;;;;;5033388;28;20038;-67
2022/07/23 05:15:38;;;;;;;1.23;0.30;;;14.70;99.90;;;;;;5032338;28;20042;-68
2022/07/23 05:18:05;;;;;;;2.38;0.30;;;14.80;99.90;;;;;;5036581;28;20089;-67
2022/07/23 05:20:32;;;;;;;4.95;0.40;;;14.80;99.90;;;;;;5033618;28;20046;-67
2022/07/23 05:23:00;;;;;;;2.38;0.50;;;15.00;99.90;;;;;;5029704;28;20077;-68
2022/07/23 05:25:27;;;;;;;2.65;0.68;;;15.00;99.90;;;;;;5037608;28;20062;-68
2022/07/23 05:27:54;;;;;;;4.75;0.90;;;15.20;99.90;;;;;;5038780;28;20081;-68
2022/07/23 05:30:22;;;;;;;2.00;0.50;;;15.30;99.90;;;;;;5037283;28;20014;-68
2022/07/23 05:32:49;;;;;;;2.88;0.68;;;15.30;99.90;;;;;;5036101;28;20041;-68
2022/07/23 05:35:17;;;;;;;3.15;0.60;;;15.30;99.90;;;;;;5036617;28;20049;-68
2022/07/23 05:37:44;;;;;;;1.60;0.70;;;15.20;99.90;;;;;;5037714;28;20022;-68
2022/07/23 05:40:12;;;;;;;1.00;0.45;;;15.20;99.90;;;;;;5038363;28;20049;-68
2022/07/23 05:42:42;;;;;;;2.42;0.60;;;15.30;99.90;;;;;;5032946;28;20037;-68
2022/07/23 05:45:10;;;;;;;0.93;0.30;;;15.20;99.90;;;;;;5038365;28;20041;-68
2022/07/23 05:47:44;;;;;;;1.42;0.63;;;15.30;99.90;;;;;;5037310;28;20098;-68
2022/07/23 05:50:13;;;;;;;2.13;1.30;;;15.20;99.90;;;;;;5038419;28;20086;-68
2022/07/23 05:52:41;;;;;;;4.25;1.38;;;15.30;99.90;;;;;;5032646;28;20027;-68
2022/07/23 05:55:10;;;;;;;4.95;0.68;;;15.40;99.90;;;;;;5027646;28;20037;-69
2022/07/23 05:57:38;;;;;;;1.85;0.20;;;15.00;99.90;;;;;;5019151;28;20048;-68
2022/07/23 06:00:06;;;;;;;1.33;0.30;;;14.80;99.90;;;;;;5037250;28;20018;-68
2022/07/23 06:02:34;;;;;;;1.73;0.20;;;14.90;99.90;;;;;;5036425;28;20042;-68
2022/07/23 06:05:01;;;;;;;4.18;0.35;;;14.70;99.90;;;;;;5037036;28;20022;-68
2022/07/23 06:07:28;;;;;;;3.53;0.80;;;14.70;99.90;;;;;;5036709;28;20106;-68
2022/07/23 06:09:56;;;;;;;4.03;1.10;;;14.80;99.90;;;;;;5037789;28;20014;-68
2022/07/23 06:12:24;;;;;;;5.53;2.70;;;14.80;99.90;;;;;;5036489;28;20029;-68
2022/07/23 06:14:52;;;;;;;3.90;1.75;;;14.80;99.90;;;;;;5036577;28;20030;-69
2022/07/23 06:17:19;;;;;;;2.30;1.38;;;14.80;99.90;;;;;;5018215;28;20030;-68
2022/07/23 06:19:46;;;;;;;7.32;2.03;;;14.70;99.90;;;;;;5038190;28;20037;-69
2022/07/23 06:22:14;;;;;;;2.65;0.65;;;14.80;99.90;;;;;;5036511;28;20030;-68
2022/07/23 06:24:41;;;;;;;2.10;0.65;;;14.70;99.90;;;;;;5037803;28;20157;-68
2022/07/23 06:27:08;;;;;;;3.53;0.85;;;14.70;99.90;;;;;;5036697;28;20033;-68
2022/07/23 06:29:36;;;;;;;1.10;0.30;;;14.70;99.90;;;;;;5037821;28;20025;-68
2022/07/23 06:32:03;;;;;;;2.15;0.40;;;14.60;99.90;;;;;;5035328;28;20022;-68
2022/07/23 06:34:30;;;;;;;5.72;3.67;;;14.60;99.90;;;;;;5035923;28;20030;-68
2022/07/23 06:36:58;;;;;;;5.70;3.63;;;14.60;99.90;;;;;;5037015;28;20038;-69
2022/07/23 06:39:25;;;;;;;5.03;2.88;;;14.60;99.90;;;;;;5038085;28;20018;-68
2022/07/23 06:41:53;;;;;;;5.45;2.90;;;14.60;99.90;;;;;;5033780;28;20046;-68
2022/07/23 06:44:20;;;;;;;5.93;3.17;;;14.50;99.90;;;;;;5035271;28;20030;-68
2022/07/23 06:46:47;;;;;;;4.88;2.03;;;14.50;99.90;;;;;;5036748;28;20077;-68
2022/07/23 06:49:15;;;;;;;7.00;2.67;;;14.50;99.90;;;;;;5041616;28;20026;-68
2022/07/23 06:51:42;;;;;;;7.43;6.13;;;14.40;99.90;;;;;;5038103;28;20041;-68
2022/07/23 06:54:09;;;;;;;4.70;2.25;;;14.40;99.90;;;;;;5036082;28;20029;-67
2022/07/23 06:56:36;;;;;;;3.65;2.05;;;14.60;99.90;;;;;;5037659;28;20050;-68
2022/07/23 06:59:04;;;;;;;2.85;1.50;;;15.30;99.90;;;;;;5032704;28;20029;-68
2022/07/23 07:01:31;;;;;;;2.35;1.40;;;16.00;99.90;;;;;;5033539;28;20033;-69
2022/07/23 07:03:58;;;;;;;4.57;1.23;;;16.60;99.90;;;;;;5029182;28;20036;-70
2022/07/23 07:06:25;;;;;;;6.90;1.65;;;17.00;99.90;;;;;;5035282;28;20038;-67
2022/07/23 07:08:53;;;;;;;3.65;1.52;;;16.70;99.90;;;;;;5035877;28;20029;-68
2022/07/23 07:11:20;;;;;;;3.55;2.10;;;15.80;99.90;;;;;;5018627;28;20101;-68
2022/07/23 07:13:47;;;;;;;8.23;2.10;;;15.40;99.90;;;;;;5033764;28;20486;-68
2022/07/23 07:16:15;;;;;;;6.78;2.20;;;15.20;99.90;;;;;;5036831;28;20072;-68
2022/07/23 07:18:42;;;;;;;3.58;1.95;;;14.90;99.90;;;;;;5038352;28;20046;-67
2022/07/23 07:21:09;;;;;;;5.95;2.13;;;14.70;99.90;;;;;;5034646;28;20029;-67
2022/07/23 07:23:36;;;;;;;4.78;2.60;;;14.60;99.90;;;;;;5036913;28;20053;-68
2022/07/23 07:26:03;;;;;;;3.97;1.80;;;14.50;99.90;;;;;;5033011;28;20034;-68
2022/07/23 07:28:31;;;;;;;7.75;4.10;;;14.40;99.90;;;;;;5021091;28;20090;-68
2022/07/23 07:30:58;;;;;;;4.97;3.08;;;14.30;99.90;;;;;;5030374;28;20384;-66
2022/07/23 07:33:25;;;;;;;7.00;2.58;;;14.30;99.90;;;;;;5038220;28;20041;-67
2022/07/23 07:35:53;;;;;;;14.63;3.97;;;14.20;99.90;;;;;;5037141;28;20049;-67
2022/07/23 07:38:20;;;;;;;9.73;3.00;;;14.20;99.90;;;;;;5035717;28;20045;-67
2022/07/23 07:40:47;;;;;;;10.63;3.50;;;14.10;99.90;;;;;;5037430;28;20026;-67
2022/07/23 07:43:15;;;;;;;9.80;4.10;;;14.00;99.90;;;;;;5038872;28;20149;-67
2022/07/23 07:45:42;;;;;;;9.35;4.50;;;14.00;99.90;;;;;;5034311;28;20029;-67
2022/07/23 07:48:09;;;;;;;8.13;4.57;;;13.90;99.90;;;;;;5034724;28;20046;-67
2022/07/23 07:50:37;;;;;;;8.52;3.75;;;13.80;99.90;;;;;;5038087;28;20064;-67
2022/07/23 07:53:04;;;;;;;10.15;3.80;;;13.80;99.90;;;;;;5039348;28;20033;-68
2022/07/23 07:55:31;;;;;;;7.63;4.00;;;13.80;99.90;;;;;;5038339;28;20053;-67
2022/07/23 07:57:59;;;;;;;8.18;3.85;;;13.80;99.90;;;;;;5038724;28;20052;-67
2022/07/23 08:00:26;;;;;;;8.57;3.88;;;13.60;99.90;;;;;;5003361;28;20034;-67
2022/07/23 08:02:55;;;;;;;9.25;4.85;;;13.60;99.90;;;;;;5035542;28;20057;-67
2022/07/23 08:05:25;;;;;;;11.18;4.60;;;13.60;99.90;;;;;;5034831;28;20034;-67
2022/07/23 08:07:52;;;;;;;8.98;4.95;;;13.60;99.90;;;;;;5035681;28;20044;-67
2022/07/23 08:10:20;;;;;;;10.90;4.75;;;13.70;99.90;;;;;;5037402;28;20034;-67
2022/07/23 08:12:50;;;;;;;9.48;5.25;;;13.70;99.90;;;;;;5036312;28;20030;-69
2022/07/23 08:15:19;;;;;;;8.02;4.13;;;13.70;99.90;;;;;;5034818;28;20033;-66
2022/07/23 08:17:47;;;;;;;7.43;3.95;;;13.80;99.90;;;;;;5028473;28;20026;-67
2022/07/23 08:20:17;;;;;;;5.55;3.50;;;13.70;99.90;;;;;;5027874;28;20041;-67
2022/07/23 08:22:47;;;;;;;7.22;3.72;;;13.80;99.90;;;;;;5037720;28;20041;-66
2022/07/23 08:25:15;;;;;;;8.23;4.75;;;13.70;99.90;;;;;;5038675;28;20061;-67
2022/07/23 08:27:43;;;;;;;8.80;5.18;;;13.60;99.90;;;;;;5038898;28;20022;-67
2022/07/23 08:30:11;;;;;;;5.50;4.03;;;13.60;99.90;;;;;;5039828;28;20030;-68
2022/07/23 08:32:53;;;;;;;7.05;4.55;;;13.60;99.90;;;;;;5038797;28;20018;-68
2022/07/23 08:35:27;;;;;;;10.80;5.60;;;13.50;99.90;;;;;;5021697;28;20080;-68
2022/07/23 08:37:55;;;;;;;7.53;4.70;;;13.50;99.90;;;;;;5003120;28;20094;-67
2022/07/23 08:40:23;;;;;;;6.72;4.47;;;13.50;99.90;;;;;;5032291;28;20033;-67
2022/07/23 08:42:51;;;;;;;7.07;4.88;;;13.50;99.90;;;;;;5038352;28;20034;-67
2022/07/23 08:45:22;;;;;;;7.57;4.95;;;13.40;99.90;;;;;;5036300;28;20049;-67
2022/07/23 08:47:55;;;;;;;9.93;5.60;;;13.40;99.90;;;;;;5038824;28;20034;-67
2022/07/23 08:50:23;;;;;;;9.02;5.70;;;13.40;99.90;;;;;;5038530;28;20037;-67
2022/07/23 08:52:52;;;;;;;9.40;5.57;;;13.40;99.90;;;;;;5039162;28;20185;-68
2022/07/23 08:55:22;;;;;;;11.13;7.78;;;13.40;99.90;;;;;;5038346;28;20117;-68
2022/07/23 08:57:51;;;;;;;17.33;10.80;;;13.40;99.90;;;;;;5038429;28;20033;-68
2022/07/23 09:00:20;;;;;;;19.17;8.98;;;13.40;99.90;;;;;;5019446;28;20034;-68
2022/07/23 09:02:48;;;;;;;10.75;8.38;;;13.30;99.90;;;;;;5038806;28;20026;-67
2022/07/23 09:05:17;;;;;;;11.23;8.18;;;13.30;99.90;;;;;;5038719;28;20033;-68
2022/07/23 09:08:16;;;;;;;11.02;7.38;;;13.30;99.90;;;;;;5037462;28;20041;-67
2022/07/23 09:10:47;;;;;;;15.68;7.13;;;13.20;99.90;;;;;;5024597;28;20029;-66
2022/07/23 09:13:38;;;;;;;11.90;6.80;;;13.20;99.90;;;;;;5019136;28;20029;-67
2022/07/23 09:16:30;;;;;;;10.48;6.22;;;13.30;99.90;;;;;;5024905;28;20118;-67
2022/07/23 09:18:58;;;;;;;11.48;6.70;;;13.30;99.90;;;;;;5038905;28;20033;-67
2022/07/23 09:21:30;;;;;;;11.38;8.60;;;13.30;99.90;;;;;;5037900;28;20050;-67
2022/07/23 09:24:05;;;;;;;13.82;9.65;;;13.30;99.90;;;;;;5038645;28;20086;-67
2022/07/23 09:26:53;;;;;;;14.55;6.32;;;13.30;99.90;;;;;;5037583;28;20085;-67
2022/07/23 09:29:23;;;;;;;9.80;6.10;;;13.30;99.90;;;;;;5018961;28;20030;-68
2022/07/23 09:31:52;;;;;;;13.27;6.85;;;13.20;99.90;;;;;;5031084;28;20033;-68
2022/07/23 09:34:25;;;;;;;13.77;6.60;;;13.30;99.90;;;;;;5038820;28;20018;-68
2022/07/23 09:36:58;;;;;;;9.25;8.25;;;13.20;99.90;;;;;;5036735;28;20069;-67
2022/07/23 09:39:33;;;;;;;11.70;8.02;;;13.20;99.90;;;;;;5038554;28;20022;-67
2022/07/23 09:42:20;;;;;;;15.55;7.20;;;13.20;99.90;;;;;;5006885;28;20037;-67
2022/07/23 09:44:53;;;;;;;11.30;7.43;;;13.30;99.90;;;;;;5018516;28;20029;-67
2022/07/23 09:47:22;;;;;;;11.05;7.65;;;13.20;99.90;;;;;;5034661;28;20086;-67
2022/07/23 09:50:00;;;;;;;16.00;9.10;;;13.20;99.90;;;;;;5038092;28;20026;-67
2022/07/23 09:52:30;;;;;;;15.18;7.97;;;13.20;99.90;;;;;;5036605;28;20090;-67
2022/07/23 09:55:03;;;;;;;12.10;8.10;;;13.20;99.90;;;;;;5038293;28;20085;-68
2022/07/23 09:57:32;;;;;;;12.13;8.90;;;13.10;99.90;;;;;;5036560;28;20144;-68
2022/07/23 10:00:04;;;;;;;11.25;8.90;;;13.20;99.90;;;;;;5037258;28;20026;-68
2022/07/23 10:02:33;;;;;;;16.27;10.55;;;13.10;99.90;;;;;;5037561;28;20030;-67
2022/07/23 10:05:02;;;;;;;14.88;9.40;;;13.10;99.90;;;;;;5036861;28;20037;-67
2022/07/23 10:07:35;;;;;;;13.90;9.75;;;13.10;99.90;;;;;;5037265;28;20022;-66
2022/07/23 10:10:03;;;;;;;14.23;9.95;;;13.10;99.90;;;;;;5037270;28;20061;-67
2022/07/23 10:15:01;;;;;;;14.82;9.90;;;13.00;99.90;;;;;;5037836;28;20065;-66
2022/07/23 10:17:31;;;;;;;14.88;10.30;;;13.00;99.90;;;;;;5036996;28;20022;-66
2022/07/23 10:19:59;;;;;;;11.88;7.72;;;12.90;99.90;;;;;;5037917;28;20052;-67
2022/07/23 10:22:28;;;;;;;14.38;8.25;;;12.90;99.90;;;;;;5036079;28;20028;-67
2022/07/23 10:25:13;;;;;;;10.60;6.95;;;12.80;99.90;;;;;;5038055;28;20022;-67
2022/07/23 10:28:20;;;;;;;11.10;6.82;;;12.80;99.90;;;;;;5036824;28;20032;-67
2022/07/23 10:31:15;;;;;;;11.18;7.53;;;12.70;99.90;;;;;;5033802;28;20032;-67
2022/07/23 10:34:11;;;;;;;11.93;8.23;;;12.60;99.90;;;;;;5037081;28;20097;-67
2022/07/23 10:36:54;;;;;;;15.40;9.70;;;12.60;99.90;;;;;;5035722;28;20034;-67
2022/07/23 10:39:34;;;;;;;17.05;10.65;;;12.60;99.90;;;;;;5020945;28;20026;-67
2022/07/23 10:42:17;;;;;;;13.57;10.40;;;12.70;99.90;;;;;;5035941;28;20034;-67
2022/07/23 10:44:48;;;;;;;14.60;10.93;;;12.70;99.90;;;;;;5024539;28;20102;-67
2022/07/23 10:47:41;;;;;;;12.27;10.63;;;12.70;99.90;;;;;;5036903;28;20026;-67
2022/07/23 10:50:35;;;;;;;13.20;9.73;;;12.70;99.90;;;;;;5037883;28;20026;-67
2022/07/23 10:53:17;;;;;;;15.48;10.52;;;12.70;99.90;;;;;;5030898;28;20030;-68
2022/07/23 10:55:51;;;;;;;13.32;10.05;;;12.70;99.90;;;;;;5036761;28;20037;-68
2022/07/23 10:58:24;;;;;;;16.85;11.85;;;12.70;99.90;;;;;;5037575;28;20018;-68
2022/07/23 11:00:51;;;;;;;16.33;10.98;;;12.60;99.90;;;;;;5034728;28;20045;-67
2022/07/23 11:03:37;;;;;;;16.50;9.95;;;12.70;99.90;;;;;;5037584;28;20018;-68
2022/07/23 11:06:05;;;;;;;13.48;10.40;;;12.50;99.90;;;;;;5036522;28;20081;-67
2022/07/23 11:08:33;;;;;;;11.77;9.73;;;12.40;99.90;;;;;;5037472;28;20109;-67
2022/07/23 11:11:03;;;;;;;12.73;10.05;;;12.40;99.90;;;;;;5035313;28;20053;-67
2022/07/23 11:13:38;;;;;;;19.10;11.00;;;12.40;99.90;;;;;;5037766;28;20022;-67
2022/07/23 11:16:10;;;;;;;20.77;12.20;;;12.30;99.90;;;;;;5036439;28;20034;-67
2022/07/23 11:18:40;;;;;;;16.88;10.38;;;12.20;99.90;;;;;;5037759;28;20021;-67
2022/07/23 11:21:23;;;;;;;16.60;11.30;;;12.30;99.90;;;;;;5036509;28;20026;-67
2022/07/23 11:24:04;;;;;;;18.98;12.30;;;12.30;99.90;;;;;;5037573;28;20034;-67
2022/07/23 11:26:51;;;;;;;13.45;11.50;;;12.30;99.90;;;;;;5036413;28;20034;-67
2022/07/23 11:32:07;;;;;;;16.38;10.48;;;12.20;99.90;;;;;;5036431;28;20061;-68
2022/07/23 11:34:48;;;;;;;13.32;10.73;;;12.20;99.90;;;;;;5040145;28;20065;-66
2022/07/23 11:37:48;;;;;;;12.38;10.57;;;12.20;99.90;;;;;;5039973;28;20073;-67
2022/07/23 11:40:17;;;;;;;13.68;10.77;;;12.30;99.90;;;;;;5019384;28;20030;-67
2022/07/23 11:42:59;;;;;;;14.00;10.68;;;12.20;99.90;;;;;;5039035;28;20026;-68
2022/07/23 11:45:32;;;;;;;11.32;8.40;;;12.20;99.90;;;;;;5039047;28;20113;-68
2022/07/23 11:48:00;;;;;;;12.57;9.10;;;12.30;99.90;;;;;;5020983;28;20034;-68
2022/07/23 11:50:27;;;;;;;12.70;9.05;;;12.30;99.90;;;;;;5004928;28;20033;-68
2022/07/23 11:52:55;;;;;;;11.70;8.88;;;12.40;99.90;;;;;;5040427;28;20033;-68
2022/07/23 11:55:23;;;;;;;13.27;8.77;;;12.50;99.90;;;;;;5039068;28;20054;-67
2022/07/23 11:57:53;;;;;;;12.50;10.20;;;12.50;99.90;;;;;;5040265;28;20022;-68
2022/07/23 12:00:25;;;;;;;12.27;10.50;;;12.50;99.90;;;;;;5039477;28;20026;-66
2022/07/23 12:02:55;;;;;;;14.55;10.98;;;12.50;99.90;;;;;;5020710;28;20026;-66
2022/07/23 12:05:29;;;;;;;12.07;10.80;;;12.60;99.90;;;;;;5021021;28;20015;-66
2022/07/23 12:07:58;;;;;;;12.25;9.40;;;12.60;99.90;;;;;;5037174;28;20033;-66
2022/07/23 12:10:29;;;;;;;13.90;9.60;;;12.60;99.90;;;;;;5039514;28;20049;-67
2022/07/23 12:13:03;;;;;;;10.45;8.80;;;12.60;99.90;;;;;;5020589;28;20029;-68
2022/07/23 12:15:37;;;;;;;11.02;8.45;;;12.50;99.90;;;;;;5021697;28;20038;-67
2022/07/23 12:18:04;;;;;;;;;;;12.50;99.90;;;;;;5040435;28;20018;-67
2022/07/23 12:20:38;;;;;;;11.98;8.90;;;12.60;99.90;;;;;;5036448;28;19917;-67
2022/07/23 12:23:07;;;;;;;11.82;9.80;;;12.50;99.90;;;;;;5037497;28;20069;-67
2022/07/23 12:25:37;;;;;;;9.15;8.13;;;12.40;99.90;;;;;;5039007;28;20025;-68
2022/07/23 12:28:12;;;;;;;14.32;9.38;;;12.50;99.90;;;;;;5040138;28;20022;-67
2022/07/23 12:30:53;;;;;;;11.80;9.00;;;12.40;99.90;;;;;;5039195;28;20052;-68
2022/07/23 12:33:25;;;;;;;10.57;8.93;;;12.40;99.90;;;;;;5040008;28;20077;-68
2022/07/23 12:35:55;;;;;;;12.68;8.35;;;12.30;99.90;;;;;;5038674;28;20048;-68
2022/07/23 12:38:24;;;;;;;14.50;9.00;;;12.40;99.90;;;;;;5039671;28;20018;-68
2022/07/23 12:40:54;;;;;;;14.60;10.35;;;12.30;99.90;;;;;;5038640;28;20025;-67
2022/07/23 12:43:27;;;;;;;13.02;10.38;;;12.20;99.90;;;;;;5038773;28;20036;-68
2022/07/23 12:46:02;;;;;;;12.02;10.60;;;12.20;99.90;;;;;;5038143;28;20025;-67
2022/07/23 12:49:00;;;;;;;11.25;10.10;;;12.20;99.90;;;;;;5039464;28;20030;-67
2022/07/23 12:51:30;;;;;;;15.02;11.30;;;12.20;99.90;;;;;;5020752;28;20059;-68
2022/07/23 12:54:04;;;;;;;13.02;11.65;;;12.10;99.90;;;;;;5039155;28;20022;-68
2022/07/23 12:56:44;;;;;;;14.30;12.60;;;12.00;99.90;;;;;;5036104;28;20041;-67
2022/07/23 12:59:16;;;;;;;16.75;12.68;;;12.00;99.90;;;;;;5030376;28;20038;-67